Nearby METAR Reports

 

KMLE - Omaha/Millard, Nebraska, USA
Distance from station: NE 1mi, 2km
Updated: Wed, 12-Aug-2020 9:35pm CDT
Clear
Clear
 Wind from SE
Wind: SE 5 mph , 7 km/h
Temperature: 79°F , 26°C
Dew Point: 73°F , 23°C
Humidity: 84%
Barometer: 29.96 inHg , 1014.6 hPa
Clouds: Clear
Visibility: 10 miles , 16 km
2020/08/13 02:35 KMLE 130235Z AUTO 13004KT 10SM CLR 26/23 A2996 RMK AO2 T02550225
KOFF - Offutt Afb/Belle, Nebraska, USA
Distance from station: ESE 12mi, 20km
Updated: Wed, 12-Aug-2020 8:56pm CDT
Overcast
Overcast
 Wind from E
Wind: E 3 mph , 6 km/h
Temperature: 77°F , 25°C
Dew Point: 73°F , 23°C
Humidity: 89%
Barometer: 29.95 inHg , 1014.2 hPa
Clouds: Overcast
Visibility: 10 miles , 16 km
Cloud details: Overcast 21000 ft
2020/08/13 01:56 KOFF 130156Z AUTO 08003KT 10SM OVC210 25/23 A2995 RMK AO2 SLP139 T02500230 $
 
KOMA - Omaha/Eppley, Nebraska, USA
Distance from station: NE 15mi, 24km
Updated: Wed, 12-Aug-2020 8:52pm CDT
Mostly cloudy
Mostly cloudy
 Wind from SSE
Wind: SSE 6 mph , 9 km/h
Temperature: 79°F , 26°C
Dew Point: 73°F , 23°C
Humidity: 84%
Barometer: 29.95 inHg , 1014.2 hPa
Clouds: Mostly cloudy
Visibility: 10 miles , 16 km
Cloud details: Few Clouds 5000 ft
Partly cloudy 14000 ft
Mostly cloudy 25000 ft
2020/08/13 01:52 KOMA 130152Z 15005KT 10SM FEW050 SCT140 BKN250 26/23 A2995 RMK AO2 SLP133 T02610228
KBTA - Blair Muni, Nebraska, USA
Distance from station: N 16mi, 25km
Updated: Wed, 12-Aug-2020 9:35pm CDT
Clear
Clear
 Wind from SE
Wind: SE 6 mph , 9 km/h
Temperature: 75°F , 24°C
Dew Point: 73°F , 23°C
Humidity: 94%
Barometer: 29.97 inHg , 1014.9 hPa
Clouds: Clear
Visibility: 10 miles , 16 km
2020/08/13 02:35 KBTA 130235Z AUTO 14005KT 10SM CLR 24/23 A2997 RMK AO2 T02400225
 
KCBF - Council Bluffs, Iowa, USA
Distance from station: ENE 20mi, 32km
Updated: Wed, 12-Aug-2020 9:35pm CDT
Clear
Clear
 Wind from SE
Wind: SE 5 mph , 7 km/h
Temperature: 75°F , 24°C
Dew Point: 75°F , 24°C
Humidity: 100%
Barometer: 29.96 inHg , 1014.6 hPa
Clouds: Clear
Visibility: 10 miles , 16 km
2020/08/13 02:35 KCBF 130235Z AUTO 14004KT 10SM CLR 24/24 A2996 RMK AO2
KPMV - Plattsmouth Muni, Nebraska, USA
Distance from station: SE 20mi, 32km
Updated: Wed, 12-Aug-2020 9:35pm CDT
Clear
Clear
 Wind from SE
Wind: SE 3 mph , 6 km/h
Temperature: 75°F , 24°C
Dew Point: 73°F , 23°C
Humidity: 94%
Barometer: 29.97 inHg , 1014.9 hPa
Clouds: Clear
Visibility: 10 miles , 16 km
2020/08/13 02:35 KPMV 130235Z AUTO 14003KT 10SM CLR 24/23 A2997 RMK AO2 T02400230
 
KAHQ - Wahoo, Nebraska, USA
Distance from station: W 25mi, 40km
Updated: Wed, 12-Aug-2020 9:35pm CDT
Clear
Clear
 Wind from SE
Wind: SE 7 mph , 11 km/h
Temperature: 73°F , 23°C
Dew Point: 73°F , 23°C
Humidity: 100%
Barometer: 29.96 inHg , 1014.6 hPa
Clouds: Clear
Visibility: 10 miles , 16 km
2020/08/13 02:35 KAHQ 130235Z AUTO 13006KT 10SM CLR 23/23 A2996 RMK AO2 T02250225
KFET - Fremont Muni Arp, Nebraska, USA
Distance from station: NW 27mi, 43km
Updated: Wed, 12-Aug-2020 9:35pm CDT
Clear
Clear
 Wind from SE
Wind: SE 7 mph , 11 km/h
Temperature: 77°F , 25°C
Dew Point: 72°F , 22°C
Humidity: 83%
Barometer: 29.96 inHg , 1014.6 hPa
Clouds: Clear
Visibility: 10 miles , 16 km
2020/08/13 02:35 KFET 130235Z AUTO 13006KT 10SM CLR 25/22 A2996 RMK AO2 T02490220
 
KTQE - Tekamah, Nebraska, USA
Distance from station: N 40mi, 64km
Updated: Wed, 12-Aug-2020 8:54pm CDT
Clear
Clear
 Wind from SSE
Wind: SSE 7 mph , 11 km/h
Temperature: 75°F , 24°C
Dew Point: 72°F , 22°C
Humidity: 89%
Barometer: 29.95 inHg , 1014.2 hPa
Clouds: Clear
Visibility: 10 miles , 16 km
2020/08/13 01:54 KTQE 130154Z AUTO 16006KT 10SM CLR 24/22 A2995 RMK AO2 SLP128 T02390217
KLNK - Lincoln, Nebraska, USA
Distance from station: SW 41mi, 65km
Updated: Wed, 12-Aug-2020 8:54pm CDT
Clear
Clear
 Wind from S
Wind: S 8 mph , 13 km/h
Temperature: 73°F , 23°C
Dew Point: 70°F , 21°C
Humidity: 89%
Barometer: 29.95 inHg , 1014.2 hPa
Clouds: Clear
Visibility: 10 miles , 16 km
2020/08/13 01:54 KLNK 130154Z 18007KT 10SM CLR 23/21 A2995 RMK AO2 SLP131 T02330206
 
KAFK - Nebraska City, Nebraska, USA
Distance from station: SSE 43mi, 70km
Updated: Wed, 12-Aug-2020 9:35pm CDT
Partly cloudy
Partly cloudy
 Wind from SSE
Wind: SSE 3 mph , 6 km/h
Temperature: 77°F , 25°C
Dew Point: 77°F , 25°C
Humidity: 100%
Barometer: 29.97 inHg , 1014.9 hPa
Clouds: Partly cloudy
Visibility: 10 miles , 16 km
Cloud details: Partly cloudy 12000 ft
2020/08/13 02:35 KAFK 130235Z AUTO 15003KT 10SM SCT120 25/25 A2997 RMK AO2 T02460246
KRDK - Red Oak, Iowa, USA
Distance from station: ESE 47mi, 75km
Updated: Wed, 12-Aug-2020 9:35pm CDT
Overcast
Overcast
 Wind from ESE
Wind: ESE 6 mph , 9 km/h
Temperature: 77°F , 25°C
Dew Point: 75°F , 24°C
Humidity: 94%
Barometer: 29.97 inHg , 1014.9 hPa
Clouds: Overcast
Visibility: 10 miles , 16 km
Cloud details: Few Clouds 13000 ft
Overcast 17000 ft
2020/08/13 02:35 KRDK 130235Z AUTO 11005KT 10SM FEW130 OVC170 25/24 A2997 RMK AO2
 
KSDA - Shenandoah Muni, Iowa, USA
Distance from station: SE 48mi, 77km
Updated: Wed, 12-Aug-2020 9:35pm CDT
Few Clouds
Few Clouds
 Wind from calm
Wind: Calm
Temperature: 77°F , 25°C
Dew Point: 75°F , 24°C
Humidity: 94%
Barometer: 29.96 inHg , 1014.6 hPa
Clouds: Few Clouds
Visibility: 10 miles , 16 km
Cloud details: Few Clouds 8500 ft
2020/08/13 02:35 KSDA 130235Z AUTO 00000KT 10SM FEW085 25/24 A2996 RMK AO2
KHNR - Harlan Muni, Iowa, USA
Distance from station: NE 49mi, 80km
Updated: Wed, 12-Aug-2020 9:35pm CDT
Clear
Clear
 Wind from SSE
Wind: SSE 5 mph , 7 km/h
Temperature: 75°F , 24°C
Dew Point: 73°F , 23°C
Humidity: 94%
Barometer: 29.98 inHg , 1015.2 hPa
Clouds: Clear
Visibility: 10 miles , 16 km
2020/08/13 02:35 KHNR 130235Z AUTO 16004KT 10SM CLR 24/23 A2998 RMK AO2 PWINO